Time;durP1;ratioP1;P1;durP2;ratioP2;P2;SDS_P1;SDS_P2;PMS_P1;PMS_P2;Temp;Humidity;BMP_temperature;BMP_pressure;BME280_temperature;BME280_humidity;BME280_pressure;Samples;Min_cycle;Max_cycle;Signal;HPM_P1;HPM_P2
2022/01/15 00:02:11;;;;;;;19.67;8.13;;;29.20;72.20;;;;;;5047194;28;20242;-57
2022/01/15 00:04:38;;;;;;;25.48;8.27;;;29.10;71.90;;;;;;5046908;28;20041;-47
2022/01/15 00:07:05;;;;;;;20.92;8.20;;;29.10;72.10;;;;;;5047086;28;20090;-52
2022/01/15 00:09:31;;;;;;;21.80;8.02;;;29.10;72.00;;;;;;5046891;28;20017;-46
2022/01/15 00:11:58;;;;;;;20.58;7.80;;;29.10;72.00;;;;;;5046982;28;20025;-49
2022/01/15 00:14:35;;;;;;;34.80;8.75;;;29.10;71.90;;;;;;5046797;28;20021;-49
2022/01/15 00:17:16;;;;;;;17.30;8.00;;;29.10;71.90;;;;;;5046623;28;20215;-48
2022/01/15 00:19:43;;;;;;;21.42;8.02;;;29.10;71.80;;;;;;5046658;28;20060;-55
2022/01/15 00:22:12;;;;;;;20.88;8.63;;;29.10;71.60;;;;;;5046757;28;20032;-47
2022/01/15 00:24:39;;;;;;;21.70;7.80;;;29.10;71.50;;;;;;5029564;28;20044;-51
2022/01/15 00:27:07;;;;;;;23.60;8.27;;;29.10;71.40;;;;;;5046628;28;20060;-49
2022/01/15 00:29:35;;;;;;;24.40;7.60;;;29.10;71.50;;;;;;5046515;28;20032;-51
2022/01/15 00:32:04;;;;;;;21.83;7.38;;;29.00;71.30;;;;;;5046691;28;20021;-51
2022/01/15 00:34:31;;;;;;;28.63;7.25;;;29.00;71.20;;;;;;5046506;28;20030;-46
2022/01/15 00:36:58;;;;;;;30.83;8.05;;;29.00;71.00;;;;;;5024432;28;20061;-57
2022/01/15 00:39:26;;;;;;;35.47;8.02;;;29.00;70.90;;;;;;5022880;28;20222;-47
2022/01/15 00:41:53;;;;;;;112.18;10.88;;;29.00;70.90;;;;;;5022998;28;20053;-51
2022/01/15 00:44:19;;;;;;;45.80;9.80;;;29.00;70.80;;;;;;5022843;28;20049;-50
2022/01/15 00:46:47;;;;;;;75.95;10.30;;;28.90;70.60;;;;;;5042580;28;20069;-48
2022/01/15 00:49:13;;;;;;;40.97;9.27;;;28.90;70.50;;;;;;5045786;28;20026;-49
2022/01/15 00:51:40;;;;;;;32.85;9.70;;;29.00;70.40;;;;;;5046072;28;20033;-53
2022/01/15 00:54:07;;;;;;;26.20;8.30;;;28.90;70.20;;;;;;5045952;28;20323;-52
2022/01/15 00:56:33;;;;;;;38.38;8.63;;;28.90;70.10;;;;;;5045963;28;20072;-48
2022/01/15 00:59:00;;;;;;;43.83;8.80;;;28.90;70.00;;;;;;5045997;28;20021;-53
2022/01/15 01:01:27;;;;;;;36.85;8.10;;;28.90;69.90;;;;;;5046012;28;20025;-55
2022/01/15 01:03:53;;;;;;;24.27;8.05;;;28.90;69.80;;;;;;5045964;28;20021;-51
2022/01/15 01:06:20;;;;;;;32.97;7.70;;;28.90;69.70;;;;;;5045963;28;20032;-53
2022/01/15 01:08:48;;;;;;;19.63;7.20;;;28.90;69.50;;;;;;5045907;28;20029;-52
2022/01/15 01:11:16;;;;;;;19.27;7.03;;;28.90;69.50;;;;;;5045810;28;20097;-51
2022/01/15 01:24:33;;;;;;;24.25;8.05;;;28.80;68.80;;;;;;5045392;28;20009;-48
2022/01/15 01:27:05;;;;;;;16.55;7.75;;;28.80;68.90;;;;;;5045687;28;20041;-53
2022/01/15 01:34:54;;;;;;;16.42;6.63;;;28.70;68.60;;;;;;5045114;28;20089;-47
2022/01/15 01:37:33;;;;;;;20.52;6.90;;;28.80;68.60;;;;;;5045564;28;20017;-59
2022/01/15 01:40:25;;;;;;;16.23;6.47;;;28.70;68.50;;;;;;5045139;28;20021;-50
2022/01/15 01:43:02;;;;;;;25.15;6.93;;;28.70;68.40;;;;;;5045744;28;20029;-54
2022/01/15 01:45:31;;;;;;;31.35;7.68;;;28.70;68.30;;;;;;5044812;28;20097;-48
2022/01/15 01:47:57;;;;;;;21.45;6.68;;;28.70;68.30;;;;;;5027935;28;20025;-48
2022/01/15 01:50:27;;;;;;;59.60;7.90;;;28.70;68.10;;;;;;5027335;28;20266;-49
2022/01/15 01:52:57;;;;;;;30.85;7.30;;;28.70;68.20;;;;;;5027335;28;20047;-50
2022/01/15 01:55:25;;;;;;;30.63;7.85;;;28.70;68.10;;;;;;5027319;28;20040;-52
2022/01/15 01:57:56;;;;;;;27.38;6.88;;;28.70;68.00;;;;;;5045365;28;20026;-46
2022/01/15 02:00:25;;;;;;;36.17;8.00;;;28.70;68.00;;;;;;5044505;28;20020;-52
2022/01/15 02:02:54;;;;;;;54.55;9.18;;;28.70;67.90;;;;;;5044627;28;20025;-50
2022/01/15 02:05:23;;;;;;;166.50;16.05;;;28.70;67.80;;;;;;5060104;28;20025;-54
2022/01/15 02:07:50;;;;;;;48.65;8.38;;;28.60;67.70;;;;;;5027244;28;20257;-50
2022/01/15 02:10:19;;;;;;;36.25;7.75;;;28.60;67.60;;;;;;5044577;28;20028;-50
2022/01/15 02:12:48;;;;;;;22.83;6.22;;;28.60;67.70;;;;;;5044766;28;20324;-49
2022/01/15 02:15:22;;;;;;;32.03;7.35;;;28.60;67.60;;;;;;5027079;28;20100;-46
2022/01/15 02:17:50;;;;;;;19.98;6.72;;;28.60;67.50;;;;;;5044425;28;20033;-48
2022/01/15 02:25:56;;;;;;;16.98;6.32;;;28.60;67.40;;;;;;5044339;28;20024;-52
2022/01/15 02:28:28;;;;;;;18.30;6.03;;;28.60;67.40;;;;;;5044213;28;20029;-50
2022/01/15 02:31:01;;;;;;;15.95;6.13;;;28.60;67.40;;;;;;5044180;28;20014;-48
2022/01/15 02:33:28;;;;;;;19.13;6.53;;;28.60;67.20;;;;;;5044192;28;20076;-47
2022/01/15 02:35:56;;;;;;;21.83;6.13;;;28.60;67.30;;;;;;5026604;28;20032;-48
2022/01/15 02:38:24;;;;;;;15.55;6.40;;;28.50;67.10;;;;;;5044030;28;20021;-46
2022/01/15 02:40:51;;;;;;;18.88;6.15;;;28.50;67.20;;;;;;5044044;28;20085;-46
2022/01/15 02:43:21;;;;;;;15.38;6.07;;;28.50;67.20;;;;;;5043852;28;20018;-49
2022/01/15 02:45:55;;;;;;;17.48;7.22;;;28.50;67.00;;;;;;5026245;28;20347;-49
2022/01/15 02:48:24;;;;;;;19.40;8.75;;;28.50;67.00;;;;;;5043868;28;20033;-54
2022/01/15 02:50:52;;;;;;;15.77;7.57;;;28.50;67.00;;;;;;5043534;28;20017;-48
2022/01/15 02:53:20;;;;;;;17.20;7.20;;;28.50;67.10;;;;;;5044093;28;20029;-49
2022/01/15 02:55:49;;;;;;;24.38;6.50;;;28.50;67.00;;;;;;5026402;28;20362;-47
2022/01/15 02:58:18;;;;;;;14.55;6.65;;;28.50;67.60;;;;;;5043735;28;20302;-46
2022/01/15 03:00:45;;;;;;;19.45;9.75;;;28.50;67.10;;;;;;5043719;28;20013;-49
2022/01/15 03:03:12;;;;;;;21.90;12.15;;;28.50;67.70;;;;;;5044272;28;20241;-50
2022/01/15 03:05:39;;;;;;;41.78;15.10;;;28.40;67.10;;;;;;5043683;28;20211;-48
2022/01/15 03:08:06;;;;;;;40.72;16.67;;;28.40;67.70;;;;;;5044249;28;20021;-51
2022/01/15 03:10:32;;;;;;;41.47;16.65;;;28.40;67.20;;;;;;5043712;28;20326;-52
2022/01/15 03:13:01;;;;;;;50.58;24.85;;;28.40;67.20;;;;;;5044003;28;20092;-48
2022/01/15 03:15:28;;;;;;;53.08;23.42;;;28.40;67.30;;;;;;5043485;28;20057;-46
2022/01/15 03:17:54;;;;;;;48.72;29.63;;;28.40;67.40;;;;;;5043437;28;20377;-51
2022/01/15 03:20:21;;;;;;;61.25;29.02;;;28.40;67.40;;;;;;5043487;28;20029;-50
2022/01/15 03:22:48;;;;;;;57.67;31.13;;;28.40;67.40;;;;;;5043952;28;20040;-49
2022/01/15 03:25:15;;;;;;;59.83;19.70;;;28.40;67.50;;;;;;5043585;28;20025;-53
2022/01/15 03:27:43;;;;;;;39.33;18.58;;;28.30;67.50;;;;;;5043889;28;20209;-51
2022/01/15 03:30:12;;;;;;;31.33;15.85;;;28.30;67.50;;;;;;5043488;28;20030;-54
2022/01/15 03:32:43;;;;;;;36.80;16.73;;;28.30;67.50;;;;;;5043958;28;20029;-54
2022/01/15 03:35:12;;;;;;;24.77;13.70;;;28.30;67.50;;;;;;5026566;28;20071;-50
2022/01/15 03:37:39;;;;;;;25.45;13.25;;;28.30;67.50;;;;;;5043791;28;20033;-55
2022/01/15 03:40:09;;;;;;;23.67;12.73;;;28.30;67.50;;;;;;5043201;28;20029;-54
2022/01/15 03:42:36;;;;;;;23.35;12.68;;;28.30;67.60;;;;;;5043920;28;20321;-52
2022/01/15 03:45:05;;;;;;;25.33;13.25;;;28.30;67.70;;;;;;5043289;28;20110;-53
2022/01/15 03:47:31;;;;;;;22.80;13.75;;;28.30;67.80;;;;;;5043564;28;20022;-48
2022/01/15 03:49:58;;;;;;;26.80;15.98;;;28.30;67.80;;;;;;5043413;28;20021;-51
2022/01/15 03:52:25;;;;;;;35.35;20.23;;;28.30;67.90;;;;;;5043671;28;20025;-46
2022/01/15 03:54:51;;;;;;;51.23;21.97;;;28.30;67.90;;;;;;5043072;28;20064;-49
2022/01/15 03:57:18;;;;;;;52.40;18.10;;;28.30;67.90;;;;;;5043715;28;20101;-54
2022/01/15 03:59:44;;;;;;;36.55;13.90;;;28.30;67.90;;;;;;5043260;28;20113;-47
2022/01/15 04:02:11;;;;;;;33.75;16.05;;;28.30;67.80;;;;;;5043025;28;20033;-50
2022/01/15 04:04:38;;;;;;;48.35;22.65;;;28.30;67.80;;;;;;5043244;28;20024;-52
2022/01/15 04:07:04;;;;;;;41.72;21.17;;;28.30;67.90;;;;;;5043413;28;20029;-51
2022/01/15 04:09:31;;;;;;;37.40;22.42;;;28.30;68.10;;;;;;5043250;28;20039;-52
2022/01/15 04:11:57;;;;;;;34.90;18.77;;;28.20;68.00;;;;;;5043373;28;20097;-49
2022/01/15 04:14:24;;;;;;;40.08;19.38;;;28.20;68.00;;;;;;5043034;28;20269;-48
2022/01/15 04:16:50;;;;;;;34.55;20.13;;;28.20;67.90;;;;;;5043098;28;20198;-54
2022/01/15 04:19:17;;;;;;;38.65;23.08;;;28.20;68.00;;;;;;5043015;28;20077;-56
2022/01/15 04:21:44;;;;;;;41.67;22.90;;;28.20;68.10;;;;;;5043215;28;20045;-50
2022/01/15 04:24:10;;;;;;;34.78;21.42;;;28.20;68.20;;;;;;5043413;28;20234;-48
2022/01/15 04:26:37;;;;;;;31.85;18.40;;;28.20;68.20;;;;;;5046647;28;20056;-49
2022/01/15 04:29:06;;;;;;;35.67;22.55;;;28.20;68.30;;;;;;5046457;28;20067;-45
2022/01/15 04:31:52;;;;;;;38.65;23.75;;;28.10;68.30;;;;;;5046619;28;20034;-47
2022/01/15 04:34:25;;;;;;;31.70;18.95;;;28.10;68.40;;;;;;5046578;28;20067;-50
2022/01/15 04:36:53;;;;;;;32.38;18.63;;;28.10;68.60;;;;;;5046397;28;20037;-48
2022/01/15 04:39:20;;;;;;;29.33;16.65;;;28.10;68.60;;;;;;5046376;28;20025;-48
2022/01/15 04:41:47;;;;;;;16.67;11.45;;;28.10;68.80;;;;;;5046343;28;20025;-52
2022/01/15 04:44:13;;;;;;;13.18;9.52;;;28.00;68.70;;;;;;5046316;28;20024;-49
2022/01/15 04:46:41;;;;;;;13.30;8.73;;;28.10;68.80;;;;;;5045963;28;20053;-49
2022/01/15 04:49:07;;;;;;;17.40;9.20;;;28.00;68.70;;;;;;5046273;28;20017;-50
2022/01/15 04:51:35;;;;;;;14.27;9.05;;;28.00;68.60;;;;;;5046251;28;20037;-52
2022/01/15 04:54:02;;;;;;;19.25;10.90;;;28.00;68.70;;;;;;5046057;28;20041;-50
2022/01/15 04:56:29;;;;;;;29.45;13.13;;;28.00;68.70;;;;;;5046154;28;20033;-49
2022/01/15 04:58:56;;;;;;;24.92;13.98;;;28.00;68.70;;;;;;5046072;28;20338;-51
2022/01/15 05:01:22;;;;;;;24.85;13.75;;;28.00;68.80;;;;;;5045938;28;20029;-51
2022/01/15 05:03:49;;;;;;;20.42;12.32;;;28.00;68.80;;;;;;5046068;28;20018;-51
2022/01/15 05:06:16;;;;;;;17.42;9.95;;;27.90;68.80;;;;;;5045873;28;20029;-50
2022/01/15 05:08:45;;;;;;;13.25;9.07;;;28.00;68.80;;;;;;5045702;28;20044;-48
2022/01/15 05:11:20;;;;;;;13.80;9.02;;;27.90;68.70;;;;;;5045755;28;20033;-50
2022/01/15 05:13:46;;;;;;;14.60;8.88;;;27.90;68.80;;;;;;5045862;28;20021;-54
2022/01/15 05:16:13;;;;;;;14.15;8.32;;;27.90;68.70;;;;;;5045650;28;20028;-48
2022/01/15 05:18:40;;;;;;;12.93;8.38;;;27.90;68.80;;;;;;5045709;28;20055;-52
2022/01/15 05:21:06;;;;;;;11.10;8.65;;;27.90;68.80;;;;;;5045468;28;20233;-52
2022/01/15 05:23:33;;;;;;;15.57;8.20;;;27.90;68.70;;;;;;5045616;28;20067;-49
2022/01/15 05:25:59;;;;;;;13.40;8.70;;;27.90;68.90;;;;;;5045507;28;20013;-51
2022/01/15 05:28:26;;;;;;;11.82;7.43;;;27.90;69.00;;;;;;5045533;28;20048;-49
2022/01/15 05:30:52;;;;;;;17.00;8.27;;;27.90;69.00;;;;;;5045278;28;20021;-49
2022/01/15 05:33:19;;;;;;;15.98;7.80;;;27.90;69.70;;;;;;5045393;28;20104;-51
2022/01/15 05:35:46;;;;;;;14.13;8.30;;;27.90;69.20;;;;;;5044151;28;20025;-50
2022/01/15 05:38:12;;;;;;;14.32;7.88;;;27.80;69.20;;;;;;5045655;28;20022;-47
2022/01/15 05:40:39;;;;;;;9.70;7.22;;;27.80;69.20;;;;;;5045419;28;20013;-51
2022/01/15 05:43:06;;;;;;;12.10;6.70;;;27.90;69.50;;;;;;5045553;28;20033;-57
2022/01/15 05:45:33;;;;;;;16.05;6.97;;;27.80;69.40;;;;;;5044835;28;20053;-55
2022/01/15 05:48:00;;;;;;;13.45;7.13;;;27.80;69.50;;;;;;5045615;28;20032;-50
2022/01/15 05:50:26;;;;;;;12.32;6.15;;;27.80;69.60;;;;;;5045142;28;20067;-53
2022/01/15 05:52:53;;;;;;;9.13;6.45;;;27.80;69.60;;;;;;5045289;28;20026;-53
2022/01/15 05:55:19;;;;;;;12.90;6.50;;;27.70;69.60;;;;;;5044916;28;20419;-51
2022/01/15 05:57:46;;;;;;;8.88;6.35;;;27.70;69.50;;;;;;5044954;28;20025;-55
2022/01/15 06:00:13;;;;;;;7.65;6.00;;;27.70;69.40;;;;;;5044766;28;20306;-50
2022/01/15 06:02:40;;;;;;;8.40;6.03;;;27.70;69.50;;;;;;5045312;28;20017;-54
2022/01/15 06:05:07;;;;;;;10.70;6.82;;;27.70;69.40;;;;;;5044861;28;20206;-49
2022/01/15 06:07:33;;;;;;;9.45;6.75;;;27.70;69.50;;;;;;5045000;28;20028;-52
2022/01/15 06:10:00;;;;;;;10.48;7.00;;;27.70;69.60;;;;;;5044792;28;20024;-49
2022/01/15 06:12:30;;;;;;;9.23;6.75;;;27.70;69.80;;;;;;5044891;28;20241;-53
2022/01/15 06:14:58;;;;;;;11.77;7.57;;;27.70;69.90;;;;;;5044640;28;20021;-52
2022/01/15 06:17:25;;;;;;;8.40;7.18;;;27.70;70.10;;;;;;5044788;28;20029;-51
2022/01/15 06:19:52;;;;;;;12.10;7.95;;;27.70;70.10;;;;;;5044486;28;20276;-54
2022/01/15 06:22:19;;;;;;;12.43;8.25;;;27.70;70.20;;;;;;5044669;28;20052;-54
2022/01/15 06:24:46;;;;;;;13.20;8.65;;;27.60;70.20;;;;;;5044371;28;20206;-54
2022/01/15 06:27:16;;;;;;;12.93;9.25;;;27.60;70.90;;;;;;5044608;28;20029;-52
2022/01/15 06:29:42;;;;;;;16.85;10.27;;;27.60;70.40;;;;;;5044160;28;20057;-54
2022/01/15 06:32:09;;;;;;;19.67;10.05;;;27.60;70.40;;;;;;5044611;28;20029;-54
2022/01/15 06:34:36;;;;;;;16.13;10.35;;;27.60;70.40;;;;;;5044329;28;20027;-58
2022/01/15 06:37:04;;;;;;;14.00;9.20;;;27.60;70.40;;;;;;5043985;28;20030;-52
2022/01/15 06:39:35;;;;;;;12.25;8.73;;;27.60;70.40;;;;;;5044204;28;20029;-52
2022/01/15 06:42:02;;;;;;;12.77;9.15;;;27.50;70.40;;;;;;5044437;28;20092;-54
2022/01/15 06:44:28;;;;;;;11.73;8.07;;;27.50;70.50;;;;;;5044006;28;20022;-49
2022/01/15 06:46:55;;;;;;;11.48;7.50;;;27.50;70.60;;;;;;5043831;28;20057;-54
2022/01/15 06:49:22;;;;;;;12.65;8.38;;;27.50;70.60;;;;;;5043946;28;20021;-49
2022/01/15 06:51:49;;;;;;;12.70;7.57;;;27.50;70.70;;;;;;5044205;28;20021;-56
2022/01/15 06:54:15;;;;;;;11.43;8.30;;;27.50;71.30;;;;;;5043898;28;20092;-56
2022/01/15 06:56:42;;;;;;;13.85;8.63;;;27.50;70.90;;;;;;5043862;28;20090;-56
2022/01/15 06:59:09;;;;;;;14.52;9.30;;;27.50;71.10;;;;;;5043799;28;20017;-62
2022/01/15 07:01:35;;;;;;;13.90;10.85;;;27.50;71.20;;;;;;5044024;28;20021;-56
2022/01/15 07:04:02;;;;;;;19.67;9.95;;;27.50;71.20;;;;;;5043929;28;20013;-51
2022/01/15 07:06:28;;;;;;;16.48;12.18;;;27.40;71.30;;;;;;5043856;28;20026;-55
2022/01/15 07:08:55;;;;;;;23.30;13.80;;;27.40;71.40;;;;;;5043776;28;20023;-54
2022/01/15 07:11:22;;;;;;;20.02;12.35;;;27.40;71.50;;;;;;5043955;28;20071;-51
2022/01/15 07:13:48;;;;;;;16.48;11.65;;;27.40;71.60;;;;;;5043628;28;20032;-54
2022/01/15 07:16:15;;;;;;;19.88;10.90;;;27.40;71.70;;;;;;5043510;28;20029;-52
2022/01/15 07:18:42;;;;;;;20.70;10.98;;;27.40;71.60;;;;;;5043733;28;20021;-55
2022/01/15 07:21:10;;;;;;;18.50;11.07;;;27.30;71.50;;;;;;5043486;28;20306;-51
2022/01/15 07:23:36;;;;;;;27.55;15.80;;;27.30;71.40;;;;;;5043693;28;20021;-52
2022/01/15 07:26:04;;;;;;;26.52;15.20;;;27.30;71.30;;;;;;5043922;28;20210;-48
2022/01/15 07:28:31;;;;;;;24.08;14.07;;;27.30;71.40;;;;;;5043326;28;20088;-53
2022/01/15 07:30:58;;;;;;;19.98;14.13;;;27.30;71.40;;;;;;5043485;28;20298;-48
2022/01/15 07:33:25;;;;;;;19.45;12.38;;;27.30;71.40;;;;;;5043505;28;20203;-47
2022/01/15 07:35:52;;;;;;;19.75;11.25;;;27.30;71.50;;;;;;5043253;28;20021;-51
2022/01/15 07:38:20;;;;;;;15.65;10.80;;;27.30;71.50;;;;;;5043417;28;20033;-48
2022/01/15 07:40:47;;;;;;;15.90;9.50;;;27.30;71.50;;;;;;5043505;28;20017;-52
2022/01/15 07:43:14;;;;;;;13.73;9.77;;;27.20;71.50;;;;;;5043733;28;20060;-46
2022/01/15 07:45:41;;;;;;;11.35;8.88;;;27.20;71.60;;;;;;5043370;28;20109;-50
2022/01/15 07:48:07;;;;;;;12.25;9.20;;;27.20;71.60;;;;;;5043931;28;20036;-50
2022/01/15 07:50:34;;;;;;;11.68;8.32;;;27.20;71.70;;;;;;5043430;28;20077;-52
2022/01/15 07:53:01;;;;;;;12.18;8.57;;;27.20;71.90;;;;;;5043903;28;20041;-48
2022/01/15 07:55:27;;;;;;;13.20;8.95;;;27.20;71.90;;;;;;5043197;28;20030;-48
2022/01/15 07:57:54;;;;;;;18.55;9.63;;;27.20;72.50;;;;;;5043706;28;20089;-53
2022/01/15 08:00:21;;;;;;;14.50;9.27;;;27.20;72.10;;;;;;5045950;28;20048;-49
2022/01/15 08:02:48;;;;;;;17.58;10.38;;;27.20;72.10;;;;;;5047170;28;20218;-48
2022/01/15 08:05:15;;;;;;;18.08;10.27;;;27.20;72.30;;;;;;5047247;28;20021;-52
2022/01/15 08:07:42;;;;;;;17.63;10.13;;;27.20;72.40;;;;;;5047303;28;20100;-54
2022/01/15 08:10:09;;;;;;;13.13;8.77;;;27.20;72.40;;;;;;5047027;28;20324;-53
2022/01/15 08:12:47;;;;;;;15.10;8.20;;;27.20;72.40;;;;;;5047212;28;20033;-50
2022/01/15 08:15:15;;;;;;;11.35;7.53;;;27.20;72.40;;;;;;5046782;28;20318;-51
2022/01/15 08:17:42;;;;;;;12.15;8.10;;;27.20;72.40;;;;;;5046672;28;20029;-52
2022/01/15 08:20:09;;;;;;;12.23;7.57;;;27.10;72.30;;;;;;5046640;28;20013;-53
2022/01/15 08:22:36;;;;;;;10.57;6.90;;;27.10;72.30;;;;;;5047013;28;20033;-51
2022/01/15 08:25:03;;;;;;;10.18;7.43;;;27.10;72.10;;;;;;5046604;28;20017;-50
2022/01/15 08:27:30;;;;;;;10.45;7.22;;;27.10;72.20;;;;;;5046905;28;20022;-54
2022/01/15 08:29:56;;;;;;;12.13;7.22;;;27.10;72.20;;;;;;5046636;28;20021;-48
2022/01/15 08:32:23;;;;;;;11.48;6.60;;;27.10;72.20;;;;;;5046856;28;20207;-49
2022/01/15 08:34:50;;;;;;;11.25;8.30;;;27.10;72.20;;;;;;5046505;28;20013;-50
2022/01/15 08:37:16;;;;;;;16.20;8.27;;;27.10;72.30;;;;;;5046708;28;20030;-49
2022/01/15 08:39:43;;;;;;;18.05;8.20;;;27.10;72.30;;;;;;5046405;28;20045;-52
2022/01/15 08:42:09;;;;;;;12.93;7.60;;;27.10;72.30;;;;;;5046574;28;20026;-54
2022/01/15 08:44:41;;;;;;;13.40;7.63;;;27.10;72.30;;;;;;5046461;28;20025;-51
2022/01/15 08:47:09;;;;;;;16.55;7.40;;;27.10;72.20;;;;;;5046045;28;20116;-49
2022/01/15 08:49:36;;;;;;;12.10;6.90;;;27.10;72.30;;;;;;5046158;28;20079;-57
2022/01/15 08:52:04;;;;;;;17.20;7.45;;;27.10;72.30;;;;;;5046458;28;20023;-51
2022/01/15 08:54:32;;;;;;;13.68;8.93;;;27.10;72.30;;;;;;5046259;28;20214;-49
2022/01/15 08:56:58;;;;;;;15.88;8.52;;;27.00;72.30;;;;;;5046149;28;20096;-53
2022/01/15 08:59:27;;;;;;;11.70;7.68;;;27.00;72.40;;;;;;5046091;28;20020;-48
2022/01/15 09:01:58;;;;;;;12.93;7.47;;;27.00;72.50;;;;;;5046120;28;20029;-48
2022/01/15 09:04:25;;;;;;;11.23;7.00;;;27.00;72.50;;;;;;5045862;28;20024;-47
2022/01/15 09:06:52;;;;;;;11.90;6.80;;;27.10;72.60;;;;;;5046228;28;20021;-48
2022/01/15 09:09:19;;;;;;;10.68;6.47;;;27.00;72.60;;;;;;5045985;28;20021;-47
2022/01/15 09:11:46;;;;;;;8.60;6.13;;;27.00;72.60;;;;;;5045578;28;20032;-50
2022/01/15 09:14:13;;;;;;;12.40;6.60;;;27.00;72.70;;;;;;5045719;28;20318;-56
2022/01/15 09:16:40;;;;;;;9.63;7.20;;;27.00;72.70;;;;;;5045671;28;20040;-52
2022/01/15 09:19:07;;;;;;;9.82;7.13;;;27.00;72.60;;;;;;5045595;28;20059;-51
2022/01/15 09:21:34;;;;;;;16.50;8.98;;;27.00;72.70;;;;;;5045738;28;20183;-52
2022/01/15 09:24:00;;;;;;;17.20;9.63;;;27.00;72.70;;;;;;5045730;28;20022;-48
2022/01/15 09:31:59;;;;;;;25.52;11.88;;;26.90;72.70;;;;;;5045697;28;20044;-46
2022/01/15 09:34:26;;;;;;;21.20;10.85;;;26.90;72.80;;;;;;5045414;28;20028;-50
2022/01/15 09:36:53;;;;;;;18.00;10.40;;;26.90;72.90;;;;;;5045440;28;20033;-51
2022/01/15 09:39:20;;;;;;;18.10;10.25;;;26.90;72.90;;;;;;5045473;28;20022;-50
2022/01/15 09:41:48;;;;;;;18.98;9.88;;;26.90;73.00;;;;;;5045354;28;20026;-48
2022/01/15 09:44:16;;;;;;;18.30;8.77;;;26.90;73.10;;;;;;5045083;28;20018;-52
2022/01/15 09:46:43;;;;;;;18.98;9.32;;;26.90;73.00;;;;;;5045296;28;20057;-48
2022/01/15 09:49:11;;;;;;;24.52;11.98;;;26.90;73.00;;;;;;5045200;28;20017;-53
2022/01/15 09:51:37;;;;;;;21.98;12.07;;;26.90;72.90;;;;;;5045139;28;20032;-54
2022/01/15 09:54:04;;;;;;;22.55;12.98;;;26.80;72.90;;;;;;5044995;28;20021;-59
2022/01/15 09:56:31;;;;;;;19.02;11.43;;;26.80;72.90;;;;;;5045039;28;20306;-52
2022/01/15 09:59:00;;;;;;;19.33;11.02;;;26.80;73.00;;;;;;5044896;28;20100;-59
2022/01/15 10:01:30;;;;;;;14.30;9.40;;;26.80;73.00;;;;;;5045184;28;20260;-54
2022/01/15 10:03:58;;;;;;;16.00;10.38;;;26.80;73.00;;;;;;5044907;28;20079;-50
2022/01/15 10:06:25;;;;;;;15.73;10.82;;;26.80;73.10;;;;;;5044762;28;20053;-49
2022/01/15 10:09:04;;;;;;;33.08;12.45;;;26.80;73.10;;;;;;5044743;28;20021;-47
2022/01/15 10:11:41;;;;;;;20.45;11.30;;;26.80;73.10;;;;;;5044727;28;20169;-47
2022/01/15 10:14:29;;;;;;;16.08;9.38;;;26.80;73.30;;;;;;5044697;28;20017;-52
2022/01/15 10:16:57;;;;;;;17.23;8.75;;;26.80;73.20;;;;;;5044577;28;20310;-47
2022/01/15 10:19:32;;;;;;;27.70;9.20;;;26.80;73.20;;;;;;5044696;28;20076;-53
2022/01/15 10:22:11;;;;;;;16.02;8.77;;;26.80;73.20;;;;;;5044107;28;20025;-46
2022/01/15 10:24:40;;;;;;;20.83;11.88;;;26.80;73.20;;;;;;5044524;28;20014;-51
2022/01/15 10:27:28;;;;;;;19.27;13.10;;;26.80;73.30;;;;;;5044679;28;20072;-50
2022/01/15 10:30:04;;;;;;;25.20;14.07;;;26.80;73.40;;;;;;5044443;28;20318;-46
2022/01/15 10:32:34;;;;;;;29.27;13.52;;;26.70;73.40;;;;;;5044316;28;20096;-51
2022/01/15 10:35:09;;;;;;;26.92;12.88;;;26.80;73.60;;;;;;5044085;28;20382;-54
2022/01/15 10:38:07;;;;;;;21.25;11.98;;;26.70;73.50;;;;;;5044187;28;20071;-55
2022/01/15 10:40:46;;;;;;;23.67;10.68;;;26.70;73.60;;;;;;5043855;28;20108;-50
2022/01/15 10:43:16;;;;;;;29.17;11.23;;;26.70;73.70;;;;;;5044404;28;20029;-54
2022/01/15 10:45:57;;;;;;;27.33;11.88;;;26.70;73.60;;;;;;5043913;28;20397;-52
2022/01/15 10:48:31;;;;;;;24.88;10.68;;;26.70;73.80;;;;;;5044106;28;20029;-52
2022/01/15 10:51:00;;;;;;;20.23;9.57;;;26.70;73.80;;;;;;5043926;28;20017;-49
2022/01/15 10:53:38;;;;;;;24.83;10.20;;;26.70;74.00;;;;;;5044334;28;20029;-52
2022/01/15 10:56:07;;;;;;;27.38;10.43;;;26.70;74.00;;;;;;5043769;28;20072;-51
2022/01/15 10:58:34;;;;;;;26.98;9.52;;;26.70;74.00;;;;;;5043949;28;20018;-52
2022/01/15 11:01:01;;;;;;;102.55;12.00;;;26.70;73.90;;;;;;5043938;28;20241;-49
2022/01/15 11:03:40;;;;;;;81.25;12.50;;;26.70;73.90;;;;;;5043562;28;20014;-52
2022/01/15 11:06:07;;;;;;;117.10;14.77;;;26.70;73.90;;;;;;5043836;28;20056;-48
2022/01/15 11:08:39;;;;;;;43.15;13.85;;;26.70;74.00;;;;;;5043783;28;20052;-48
2022/01/15 11:11:07;;;;;;;52.67;14.63;;;26.70;74.00;;;;;;5043725;28;20030;-46
2022/01/15 11:13:37;;;;;;;55.47;12.23;;;26.70;74.00;;;;;;5043805;28;20067;-50
2022/01/15 11:16:08;;;;;;;45.28;11.43;;;26.70;74.00;;;;;;5043487;28;20302;-48
2022/01/15 11:18:41;;;;;;;36.95;9.63;;;26.70;74.10;;;;;;5043649;28;20021;-51
2022/01/15 11:21:16;;;;;;;46.38;10.98;;;26.70;74.00;;;;;;5043595;28;20357;-47
2022/01/15 11:23:44;;;;;;;42.78;12.10;;;26.70;74.00;;;;;;5043162;28;20076;-50
2022/01/15 11:26:13;;;;;;;34.53;10.43;;;26.70;73.80;;;;;;5043479;28;20033;-50
2022/01/15 11:28:42;;;;;;;56.38;10.57;;;26.60;73.60;;;;;;5042802;28;20088;-46
2022/01/15 11:31:24;;;;;;;70.25;9.82;;;26.70;73.60;;;;;;5042928;28;20022;-48
2022/01/15 11:33:53;;;;;;;50.25;9.27;;;26.60;73.30;;;;;;5045127;28;20021;-49
2022/01/15 11:36:39;;;;;;;52.08;9.07;;;26.70;73.10;;;;;;5046737;28;20026;-51
2022/01/15 11:39:21;;;;;;;36.80;8.30;;;26.60;73.00;;;;;;5045754;28;20081;-47
2022/01/15 11:41:55;;;;;;;35.42;8.77;;;26.70;73.20;;;;;;5045940;28;20044;-48
2022/01/15 11:44:41;;;;;;;29.25;7.70;;;26.70;73.00;;;;;;5045550;28;20314;-56
2022/01/15 11:47:18;;;;;;;32.08;8.00;;;26.70;72.90;;;;;;5045840;28;20111;-49
2022/01/15 11:49:47;;;;;;;49.90;19.77;;;26.70;72.80;;;;;;5045458;28;20064;-53
2022/01/15 11:52:14;;;;;;;56.85;25.70;;;26.70;72.60;;;;;;5046936;28;20070;-48
2022/01/15 11:54:50;;;;;;;46.03;17.83;;;26.70;72.60;;;;;;5047210;28;20314;-48
2022/01/15 11:57:32;;;;;;;40.28;15.23;;;26.70;72.60;;;;;;5047485;28;20049;-51
2022/01/15 12:00:00;;;;;;;42.70;18.08;;;26.70;72.50;;;;;;5047211;28;20041;-53
2022/01/15 12:02:29;;;;;;;34.00;17.25;;;26.70;72.50;;;;;;5047319;28;20044;-50
2022/01/15 12:05:14;;;;;;;42.63;19.25;;;26.70;72.40;;;;;;5047144;28;20297;-48
2022/01/15 12:07:45;;;;;;;41.63;15.30;;;26.70;72.30;;;;;;5047344;28;20029;-53
2022/01/15 12:10:18;;;;;;;48.28;15.25;;;26.70;72.30;;;;;;5047065;28;20009;-51
2022/01/15 12:12:49;;;;;;;44.38;16.08;;;26.70;72.30;;;;;;5047065;28;20233;-50
2022/01/15 12:15:24;;;;;;;30.95;13.30;;;26.80;72.20;;;;;;5046714;28;20051;-49
2022/01/15 12:17:54;;;;;;;204.52;20.42;;;26.70;72.10;;;;;;5047186;28;20244;-48
2022/01/15 12:20:21;;;;;;;46.78;11.88;;;26.70;72.10;;;;;;5046705;28;20021;-48
2022/01/15 12:23:01;;;;;;;46.38;11.75;;;26.70;72.10;;;;;;5047061;28;20025;-48
2022/01/15 12:25:31;;;;;;;36.60;10.70;;;26.70;72.00;;;;;;5046522;28;20047;-47
2022/01/15 12:28:03;;;;;;;36.75;10.05;;;26.80;72.10;;;;;;5046889;28;20030;-47
2022/01/15 12:30:35;;;;;;;62.70;11.13;;;26.80;72.10;;;;;;5046501;28;20017;-49
2022/01/15 12:33:05;;;;;;;32.67;10.35;;;26.80;72.20;;;;;;5046917;28;20029;-47
2022/01/15 12:35:35;;;;;;;33.05;10.05;;;26.80;72.40;;;;;;5046408;28;20032;-50
2022/01/15 12:38:28;;;;;;;40.65;10.57;;;26.80;72.70;;;;;;5046826;28;20022;-54
2022/01/15 12:40:56;;;;;;;38.47;11.07;;;26.80;72.90;;;;;;5046370;28;20028;-50
2022/01/15 12:43:26;;;;;;;39.05;11.73;;;26.80;73.00;;;;;;5046280;28;20017;-47
2022/01/15 12:45:56;;;;;;;37.00;11.85;;;26.80;73.40;;;;;;5045339;28;20056;-53
2022/01/15 12:48:39;;;;;;;40.33;13.55;;;26.80;73.80;;;;;;5046590;28;20097;-54
2022/01/15 12:51:09;;;;;;;42.05;13.52;;;26.80;74.20;;;;;;5046253;28;20280;-46
2022/01/15 12:53:39;;;;;;;32.03;13.52;;;26.80;74.40;;;;;;5046257;28;20101;-55
2022/01/15 12:56:15;;;;;;;33.13;12.98;;;26.80;74.50;;;;;;5028480;28;20025;-48
2022/01/15 12:58:42;;;;;;;39.97;13.73;;;26.80;74.60;;;;;;5046157;28;20057;-50
2022/01/15 13:01:10;;;;;;;51.50;15.48;;;26.80;74.80;;;;;;5045946;28;20017;-50
2022/01/15 13:03:39;;;;;;;60.00;16.67;;;26.80;74.80;;;;;;5046070;28;20071;-51
2022/01/15 13:06:07;;;;;;;72.30;20.48;;;26.90;75.30;;;;;;5046018;28;20095;-53
2022/01/15 13:08:43;;;;;;;76.78;27.58;;;26.90;74.80;;;;;;5045747;28;20044;-49
2022/01/15 13:13:43;;;;;;;64.85;24.25;;;26.90;74.80;;;;;;5045877;28;20055;-50